createdAt,value
2022-10-11T00:00:02.607Z,95.7
2022-10-11T00:03:02.591Z,95.7
2022-10-11T00:06:02.982Z,95.7
2022-10-11T00:09:02.632Z,95.7
2022-10-11T00:12:02.614Z,95.8
2022-10-11T00:15:02.617Z,95.9
2022-10-11T00:18:05.333Z,95.9
2022-10-11T00:21:02.632Z,96.1
2022-10-11T00:24:02.641Z,96.3
2022-10-11T00:27:02.669Z,96
2022-10-11T00:30:02.651Z,96.3
2022-10-11T00:33:02.663Z,96.3
2022-10-11T00:36:03.003Z,96.3
2022-10-11T00:39:02.677Z,96.2
2022-10-11T00:42:02.676Z,96.1
2022-10-11T00:45:02.710Z,96.1
2022-10-11T00:48:02.691Z,96
2022-10-11T00:51:03.069Z,96.1
2022-10-11T00:54:02.700Z,96
2022-10-11T00:57:02.707Z,96
2022-10-11T01:00:02.722Z,96
2022-10-11T01:03:02.760Z,96
2022-10-11T01:06:03.088Z,96.1
2022-10-11T01:09:02.739Z,96.3
2022-10-11T01:12:02.756Z,96.2
2022-10-11T01:15:02.763Z,96.3
2022-10-11T01:18:02.773Z,96.5
2022-10-11T01:21:02.808Z,96.3
2022-10-11T01:24:07.552Z,96.2
2022-10-11T01:27:02.784Z,96.2
2022-10-11T01:30:02.793Z,96.1
2022-10-11T01:33:02.801Z,96.2
2022-10-11T01:36:03.048Z,96.2
2022-10-11T01:39:02.834Z,96.4
2022-10-11T01:42:02.817Z,96.5
2022-10-11T01:45:02.817Z,96.5
2022-10-11T01:48:02.831Z,96.5
2022-10-11T01:51:02.838Z,96.5
2022-10-11T01:54:02.846Z,96.5
2022-10-11T01:57:02.880Z,96.5
2022-10-11T02:00:02.857Z,96.5
2022-10-11T02:03:02.867Z,96.4
2022-10-11T02:06:03.260Z,96.4
2022-10-11T02:09:07.132Z,96.5
2022-10-11T02:12:02.890Z,96.5
2022-10-11T02:15:02.924Z,96.5
2022-10-11T02:18:02.910Z,96.5
2022-10-11T02:21:02.912Z,96.3
2022-10-11T02:24:02.919Z,96.2
2022-10-11T02:27:02.926Z,96.3
2022-10-11T02:30:02.935Z,96.4
2022-10-11T02:33:02.975Z,96.5
2022-10-11T02:36:03.256Z,96.6
2022-10-11T02:39:02.955Z,96.8
2022-10-11T02:42:02.972Z,96.8
2022-10-11T02:45:02.973Z,96.8
2022-10-11T02:48:02.994Z,96.7
2022-10-11T02:51:03.022Z,96.7
2022-10-11T02:54:03.009Z,96.7
2022-10-11T02:57:03.012Z,96.7
2022-10-11T03:00:03.018Z,96.7
2022-10-11T03:03:03.041Z,96.7
2022-10-11T03:06:03.342Z,96.6
2022-10-11T03:09:03.072Z,96.6
2022-10-11T03:12:03.059Z,96.6
2022-10-11T03:15:03.066Z,96.6
2022-10-11T03:18:03.070Z,96.7
2022-10-11T03:21:03.083Z,96.8
2022-10-11T03:24:03.095Z,96.8
2022-10-11T03:27:03.209Z,96.8
2022-10-11T03:30:03.114Z,96.8
2022-10-11T03:33:03.116Z,96.9
2022-10-11T03:36:03.553Z,96.8
2022-10-11T03:39:03.139Z,96.8
2022-10-11T03:42:03.152Z,96.8
2022-10-11T03:45:03.191Z,96.9
2022-10-11T03:48:03.182Z,96.9
2022-10-11T03:51:03.185Z,96.9
2022-10-11T03:54:03.202Z,96.9
2022-10-11T03:57:03.213Z,97.1
2022-10-11T04:00:03.221Z,97.1
2022-10-11T04:03:03.263Z,97.1
2022-10-11T04:06:03.615Z,97.1
2022-10-11T04:09:03.247Z,97.1
2022-10-11T04:12:03.266Z,97
2022-10-11T04:15:03.300Z,97
2022-10-11T04:18:03.288Z,97
2022-10-11T04:21:03.319Z,96.9
2022-10-11T04:24:03.311Z,96.9
2022-10-11T04:27:03.318Z,96.9
2022-10-11T04:30:03.321Z,96.9
2022-10-11T04:33:03.331Z,96.9
2022-10-11T04:36:03.742Z,96.9
2022-10-11T04:39:03.383Z,96.9
2022-10-11T04:42:03.372Z,96.9
2022-10-11T04:45:03.494Z,96.9
2022-10-11T04:48:03.392Z,96.8
2022-10-11T04:51:03.400Z,96.8
2022-10-11T04:54:03.420Z,96.7
2022-10-11T04:57:03.455Z,96.7
2022-10-11T05:00:03.438Z,96.7
2022-10-11T05:03:03.455Z,96.8
2022-10-11T05:06:05.802Z,96.8
2022-10-11T05:09:03.472Z,96.8
2022-10-11T05:12:03.486Z,96.9
2022-10-11T05:15:03.526Z,96.9
2022-10-11T05:18:03.498Z,96.9
2022-10-11T05:21:03.516Z,97
2022-10-11T05:24:03.527Z,97
2022-10-11T05:27:03.780Z,97
2022-10-11T05:30:03.574Z,97
2022-10-11T05:33:03.589Z,96.9
2022-10-11T05:36:03.950Z,97
2022-10-11T05:39:03.580Z,96.9
2022-10-11T05:42:06.576Z,96.9
2022-10-11T05:45:03.641Z,97
2022-10-11T05:48:03.608Z,97
2022-10-11T05:51:03.645Z,97
2022-10-11T05:54:03.642Z,97.1
2022-10-11T05:57:03.646Z,97.1
2022-10-11T06:00:03.696Z,97.2
2022-10-11T06:03:03.666Z,97.2
2022-10-11T06:06:03.733Z,97.2
2022-10-11T06:09:03.713Z,97.1
2022-10-11T06:12:03.706Z,97
2022-10-11T06:15:03.816Z,97
2022-10-11T06:18:03.717Z,96.9
2022-10-11T06:21:03.724Z,96.8
2022-10-11T06:24:03.739Z,96.8
2022-10-11T06:27:03.771Z,96.7
2022-10-11T06:30:03.836Z,96.6
2022-10-11T06:33:04.908Z,96.3
2022-10-11T06:36:04.097Z,95.9
2022-10-11T06:39:03.793Z,95.4
2022-10-11T06:42:03.877Z,94.8
2022-10-11T06:45:03.922Z,94.3
2022-10-11T06:48:03.826Z,92.8
2022-10-11T06:51:03.834Z,92.7
2022-10-11T06:54:03.840Z,92.4
2022-10-11T06:57:03.855Z,91.8
2022-10-11T07:00:03.993Z,91.3
2022-10-11T07:03:03.986Z,90.8
2022-10-11T07:06:04.202Z,90.4
2022-10-11T07:09:03.909Z,89.2
2022-10-11T07:12:03.913Z,89.1
2022-10-11T07:15:04.018Z,88.7
2022-10-11T07:18:03.939Z,88.2
2022-10-11T07:21:03.974Z,87.8
2022-10-11T07:24:03.964Z,87.2
2022-10-11T07:27:03.975Z,84.8
2022-10-11T07:30:04.095Z,84.5
2022-10-11T07:33:03.989Z,84.9
2022-10-11T07:36:04.355Z,83.3
2022-10-11T07:39:04.051Z,83.6
2022-10-11T07:42:04.035Z,82.7
2022-10-11T07:45:04.243Z,82.1
2022-10-11T07:48:04.049Z,80.7
2022-10-11T07:51:04.057Z,79.8
2022-10-11T07:54:07.135Z,79.3
2022-10-11T07:57:04.115Z,78.6
2022-10-11T08:00:04.300Z,78.2
2022-10-11T08:03:04.110Z,78.7
2022-10-11T08:06:04.535Z,78.3
2022-10-11T08:09:04.136Z,76.5
2022-10-11T08:12:04.143Z,76.6
2022-10-11T08:15:04.552Z,75.5
2022-10-11T08:18:04.172Z,76.2
2022-10-11T08:21:04.183Z,75.4
2022-10-11T08:24:04.181Z,75
2022-10-11T08:27:04.202Z,73.7
2022-10-11T08:30:04.631Z,72.8
2022-10-11T08:33:08.351Z,72.5
2022-10-11T08:36:04.675Z,72
2022-10-11T08:39:04.251Z,71.7
2022-10-11T08:42:04.252Z,71.6
2022-10-11T08:45:12.318Z,71.1
2022-10-11T08:48:04.270Z,70.8
2022-10-11T08:51:04.317Z,70
2022-10-11T08:54:07.497Z,69.1
2022-10-11T08:57:04.303Z,68
2022-10-11T09:00:04.533Z,66.7
2022-10-11T09:03:08.318Z,65.7
2022-10-11T09:06:04.755Z,66.3
2022-10-11T09:09:04.371Z,65.6
2022-10-11T09:12:04.364Z,64.7
2022-10-11T09:15:04.364Z,64.4
2022-10-11T09:18:04.373Z,63.9
2022-10-11T09:21:04.387Z,62.9
2022-10-11T09:24:04.391Z,62
2022-10-11T09:27:04.434Z,61.6
2022-10-11T09:30:04.417Z,61.3
2022-10-11T09:33:04.434Z,60.8
2022-10-11T09:36:04.697Z,59.9
2022-10-11T09:39:06.742Z,59.4
2022-10-11T09:42:04.459Z,59
2022-10-11T09:45:04.490Z,57.6
2022-10-11T09:48:04.477Z,57.7
2022-10-11T09:51:04.483Z,56.2
2022-10-11T09:54:04.488Z,57
2022-10-11T09:57:04.506Z,57.4
2022-10-11T10:00:04.508Z,57.1
2022-10-11T10:03:04.542Z,55.5
2022-10-11T10:06:04.732Z,56.1
2022-10-11T10:09:04.529Z,55.4
2022-10-11T10:12:04.535Z,55.8
2022-10-11T10:15:04.555Z,56.6
2022-10-11T10:18:04.556Z,56.1
2022-10-11T10:21:04.593Z,55.5
2022-10-11T10:24:04.572Z,55.5
2022-10-11T10:27:04.587Z,54.8
2022-10-11T10:30:04.603Z,55.1
2022-10-11T10:33:04.599Z,54.8
2022-10-11T10:36:04.965Z,54.1
2022-10-11T10:39:04.646Z,53.9
2022-10-11T10:42:04.628Z,54.9
2022-10-11T10:45:07.298Z,55.3
2022-10-11T10:48:04.649Z,53.4
2022-10-11T10:51:08.364Z,52.3
2022-10-11T10:54:04.664Z,53.8
2022-10-11T10:57:04.722Z,56.1
2022-10-11T11:00:04.675Z,56.9
2022-10-11T11:03:04.679Z,55.7
2022-10-11T11:06:04.952Z,55.1
2022-10-11T11:09:04.691Z,54.4
2022-10-11T11:12:04.705Z,54.6
2022-10-11T11:15:04.740Z,55.2
2022-10-11T11:18:04.721Z,54.9
2022-10-11T11:21:04.729Z,55.7
2022-10-11T11:24:04.730Z,56.4
2022-10-11T11:27:04.747Z,57
2022-10-11T11:30:04.747Z,55.9
2022-10-11T11:33:04.784Z,55.9
2022-10-11T11:36:05.054Z,55.5
2022-10-11T11:39:04.762Z,56
2022-10-11T11:42:04.772Z,57.4
2022-10-11T11:45:04.771Z,57.5
2022-10-11T11:48:04.779Z,56.9
2022-10-11T11:51:05.025Z,56.4
2022-10-11T11:54:04.790Z,55.8
2022-10-11T11:57:04.785Z,55
2022-10-11T12:00:04.793Z,52.7
2022-10-11T12:03:04.793Z,54.4
2022-10-11T12:06:04.793Z,54.7
2022-10-11T12:09:04.822Z,54.1
2022-10-11T12:12:04.799Z,54.6
2022-10-11T12:15:04.797Z,55.4
2022-10-11T12:18:04.802Z,55.9
2022-10-11T12:21:05.110Z,56
2022-10-11T12:24:04.800Z,56.1
2022-10-11T12:27:04.828Z,55.4
2022-10-11T12:30:04.804Z,54.5
2022-10-11T12:33:04.803Z,54.2
2022-10-11T12:36:07.284Z,54.4
2022-10-11T12:39:04.803Z,54.7
2022-10-11T12:42:05.961Z,53.8
2022-10-11T12:45:04.839Z,51
2022-10-11T12:48:04.811Z,51.3
2022-10-11T12:51:04.814Z,51.7
2022-10-11T12:54:25.297Z,51.3
2022-10-11T12:57:07.313Z,51.3
2022-10-11T13:00:04.817Z,51.3
2022-10-11T13:03:04.838Z,51.9
2022-10-11T13:06:04.869Z,52.7
2022-10-11T13:09:04.820Z,52.9
2022-10-11T13:12:04.825Z,53.6
2022-10-11T13:15:04.832Z,54.3
2022-10-11T13:18:04.832Z,54.4
2022-10-11T13:21:05.192Z,55
2022-10-11T13:24:04.835Z,55.3
2022-10-11T13:27:04.837Z,55.6
2022-10-11T13:30:04.838Z,55.6
2022-10-11T13:33:04.838Z,56.9
2022-10-11T13:36:05.128Z,57.7
2022-10-11T13:39:04.867Z,58.4
2022-10-11T13:42:04.843Z,59.2
2022-10-11T13:45:04.846Z,59.7
2022-10-11T13:48:04.855Z,60.4
2022-10-11T13:51:04.849Z,60.9
2022-10-11T13:54:04.862Z,61.4
2022-10-11T13:57:04.885Z,61.5
2022-10-11T14:00:04.871Z,61.3
2022-10-11T14:03:04.872Z,60.7
2022-10-11T14:06:05.226Z,59.6
2022-10-11T14:09:04.872Z,60
2022-10-11T14:12:04.877Z,59.6
2022-10-11T14:15:04.902Z,54.8
2022-10-11T14:18:04.880Z,54.5
2022-10-11T14:21:05.120Z,53.5
2022-10-11T14:24:04.887Z,53.4
2022-10-11T14:27:04.905Z,54.1
2022-10-11T14:30:24.357Z,54.3
2022-10-11T14:33:04.924Z,54.4
2022-10-11T14:36:05.268Z,55
2022-10-11T14:39:04.900Z,55.3
2022-10-11T14:42:04.903Z,55.7
2022-10-11T14:45:04.906Z,55.8
2022-10-11T14:48:04.917Z,55.7
2022-10-11T14:51:04.932Z,56
2022-10-11T14:54:04.916Z,57
2022-10-11T14:57:04.915Z,57.2
2022-10-11T15:00:04.918Z,57.5
2022-10-11T15:03:04.922Z,57.5
2022-10-11T15:06:05.237Z,57.8
2022-10-11T15:09:04.945Z,58.2
2022-10-11T15:12:04.930Z,58
2022-10-11T15:15:04.924Z,58.5
2022-10-11T15:18:04.923Z,58.8
2022-10-11T15:21:04.936Z,59.3
2022-10-11T15:24:04.934Z,59.5
2022-10-11T15:27:04.961Z,59.8
2022-10-11T15:30:04.935Z,60
2022-10-11T15:33:04.935Z,60.3
2022-10-11T15:36:05.311Z,60
2022-10-11T15:39:04.935Z,60.3
2022-10-11T15:42:04.936Z,60.6
2022-10-11T15:45:04.972Z,60.9
2022-10-11T15:48:04.945Z,61.1
2022-10-11T15:51:04.941Z,61.5
2022-10-11T15:54:04.950Z,62
2022-10-11T15:57:04.952Z,62.2
2022-10-11T16:00:04.956Z,62.5
2022-10-11T16:03:04.973Z,62.8
2022-10-11T16:06:05.790Z,63
2022-10-11T16:09:04.960Z,63.4
2022-10-11T16:12:04.959Z,63.8
2022-10-11T16:15:04.962Z,64.3
2022-10-11T16:18:04.964Z,64.6
2022-10-11T16:21:05.250Z,64.9
2022-10-11T16:24:04.969Z,65.4
2022-10-11T16:27:04.974Z,65.9
2022-10-11T16:30:04.988Z,66.5
2022-10-11T16:33:04.966Z,67.1
2022-10-11T16:36:05.303Z,67.8
2022-10-11T16:39:04.993Z,68.4
2022-10-11T16:42:04.971Z,69.1
2022-10-11T16:45:04.974Z,69.8
2022-10-11T16:48:04.977Z,70.5
2022-10-11T16:51:04.979Z,71.2
2022-10-11T16:54:04.978Z,71.9
2022-10-11T16:57:05.005Z,72.3
2022-10-11T17:00:04.987Z,73.3
2022-10-11T17:03:04.995Z,73.8
2022-10-11T17:06:05.287Z,74.7
2022-10-11T17:09:04.996Z,75.4
2022-10-11T17:12:04.997Z,76.2
2022-10-11T17:15:05.086Z,77.1
2022-10-11T17:18:04.999Z,77.9
2022-10-11T17:21:05.002Z,78.9
2022-10-11T17:24:05.002Z,79.5
2022-10-11T17:27:05.004Z,79.2
2022-10-11T17:30:05.009Z,79.7
2022-10-11T17:33:05.034Z,80.2
2022-10-11T17:36:05.300Z,81.8
2022-10-11T17:39:05.012Z,82.8
2022-10-11T17:42:05.020Z,82.9
2022-10-11T17:45:05.016Z,82.8
2022-10-11T17:48:05.021Z,82.7
2022-10-11T17:51:05.314Z,82.9
2022-10-11T17:54:05.025Z,83.2
2022-10-11T17:57:05.019Z,84
2022-10-11T18:00:05.027Z,84.3
2022-10-11T18:03:05.032Z,84.8
2022-10-11T18:06:05.036Z,85.6
2022-10-11T18:09:05.065Z,85.9
2022-10-11T18:12:05.037Z,86.1
2022-10-11T18:15:05.066Z,86.2
2022-10-11T18:18:05.050Z,85.9
2022-10-11T18:21:05.047Z,86.4
2022-10-11T18:24:05.045Z,86.5
2022-10-11T18:27:05.084Z,87.2
2022-10-11T18:30:05.054Z,87.4
2022-10-11T18:33:05.050Z,87.4
2022-10-11T18:36:05.054Z,87.5
2022-10-11T18:39:05.060Z,87.8
2022-10-11T18:42:05.058Z,87.7
2022-10-11T18:45:05.087Z,87.6
2022-10-11T18:48:05.055Z,87.6
2022-10-11T18:51:05.411Z,87.9
2022-10-11T18:54:05.067Z,88
2022-10-11T18:57:05.072Z,88.2
2022-10-11T19:00:11.951Z,88.7
2022-10-11T19:03:05.103Z,89.3
2022-10-11T19:06:05.338Z,89.6
2022-10-11T19:09:05.079Z,89.5
2022-10-11T19:12:05.081Z,89.5
2022-10-11T19:15:05.083Z,89.7
2022-10-11T19:18:05.085Z,89.7
2022-10-11T19:21:05.344Z,89.8
2022-10-11T19:24:05.087Z,90.2
2022-10-11T19:27:05.102Z,90.4
2022-10-11T19:30:05.093Z,90.3
2022-10-11T19:33:05.099Z,90.1
2022-10-11T19:36:05.099Z,90.1
2022-10-11T19:39:05.126Z,90.4
2022-10-11T19:42:05.114Z,90.5
2022-10-11T19:45:05.113Z,90.6
2022-10-11T19:48:05.115Z,91
2022-10-11T19:51:05.125Z,91.2
2022-10-11T19:54:05.127Z,91.2
2022-10-11T19:57:05.160Z,91.1
2022-10-11T20:00:05.136Z,91.3
2022-10-11T20:03:05.142Z,91.3
2022-10-11T20:06:05.151Z,91.4
2022-10-11T20:09:27.821Z,91.6
2022-10-11T20:12:05.148Z,91.8
2022-10-11T20:15:05.177Z,91.7
2022-10-11T20:18:05.159Z,91.9
2022-10-11T20:21:05.163Z,92.1
2022-10-11T20:24:05.168Z,91.9
2022-10-11T20:27:05.172Z,91.6
2022-10-11T20:30:05.173Z,91.3
2022-10-11T20:33:05.302Z,91.1
2022-10-11T20:36:05.186Z,91
2022-10-11T20:39:05.201Z,90.7
2022-10-11T20:42:05.194Z,91
2022-10-11T20:45:05.200Z,91.5
2022-10-11T20:48:05.202Z,91.5
2022-10-11T20:51:05.231Z,91.1
2022-10-11T20:54:05.211Z,90.9
2022-10-11T20:57:05.219Z,91
2022-10-11T21:00:05.220Z,91
2022-10-11T21:03:05.220Z,91
2022-10-11T21:06:05.221Z,91.1
2022-10-11T21:09:05.251Z,91.3
2022-10-11T21:12:05.229Z,91.8
2022-10-11T21:15:05.235Z,91.8
2022-10-11T21:18:05.237Z,91.5
2022-10-11T21:21:05.254Z,91.9
2022-10-11T21:24:05.248Z,91.7
2022-10-11T21:27:05.278Z,91.6
2022-10-11T21:30:05.258Z,91.7
2022-10-11T21:33:05.257Z,92.3
2022-10-11T21:36:05.264Z,93
2022-10-11T21:39:05.265Z,93.3
2022-10-11T21:42:05.274Z,93.4
2022-10-11T21:45:05.301Z,93.5
2022-10-11T21:48:05.284Z,93.2
2022-10-11T21:51:05.324Z,92.9
2022-10-11T21:54:05.297Z,93
2022-10-11T21:57:05.302Z,92.8
2022-10-11T22:00:05.300Z,92.9
2022-10-11T22:03:05.340Z,93
2022-10-11T22:06:05.316Z,93
2022-10-11T22:09:05.317Z,93.2
2022-10-11T22:12:05.321Z,93.8
2022-10-11T22:15:05.323Z,94
2022-10-11T22:18:05.336Z,94
2022-10-11T22:21:05.371Z,93.8
2022-10-11T22:24:05.343Z,93.7
2022-10-11T22:27:05.341Z,93.6
2022-10-11T22:30:05.345Z,93.7
2022-10-11T22:33:05.359Z,93.9
2022-10-11T22:36:05.359Z,94.3
2022-10-11T22:39:05.390Z,94.6
2022-10-11T22:42:05.371Z,94.9
2022-10-11T22:45:05.375Z,94.8
2022-10-11T22:48:05.379Z,94.6
2022-10-11T22:51:05.383Z,94.4
2022-10-11T22:54:05.391Z,94.6
2022-10-11T22:57:05.417Z,94.9
2022-10-11T23:00:05.398Z,95.2
2022-10-11T23:03:05.425Z,95.2
2022-10-11T23:06:05.423Z,94.8
2022-10-11T23:09:05.419Z,94.8
2022-10-11T23:12:05.425Z,94.9
2022-10-11T23:15:05.446Z,95.1
2022-10-11T23:18:05.431Z,95.1
2022-10-11T23:21:05.437Z,94.8
2022-10-11T23:24:05.442Z,94.6
2022-10-11T23:27:05.445Z,94.4
2022-10-11T23:30:05.453Z,94.7
2022-10-11T23:33:05.485Z,95.1
2022-10-11T23:36:05.460Z,95.5
2022-10-11T23:39:05.473Z,95.8
2022-10-11T23:42:05.469Z,95.8
2022-10-11T23:45:05.482Z,95.4
2022-10-11T23:48:05.482Z,94.9
2022-10-11T23:51:05.513Z,94.7
2022-10-11T23:54:05.517Z,94.8
2022-10-11T23:57:05.501Z,94.9
